sensor_id;sensor_type;location;lat;lon;timestamp;pressure;altitude;pressure_sealevel;temperature;humidity
33161;BME280;19522;45.656;11.302;2023-05-29T00:00:46;98203.59;;;17.56;69.59
33161;BME280;19522;45.656;11.302;2023-05-29T00:03:11;98218.16;;;17.69;69.22
33161;BME280;19522;45.656;11.302;2023-05-29T00:05:38;98185.19;;;17.57;68.20
33161;BME280;19522;45.656;11.302;2023-05-29T00:08:03;98159.19;;;17.48;68.02
33161;BME280;19522;45.656;11.302;2023-05-29T00:10:29;98218.97;;;17.81;68.67
33161;BME280;19522;45.656;11.302;2023-05-29T00:12:57;98201.66;;;17.57;67.98
33161;BME280;19522;45.656;11.302;2023-05-29T00:15:23;98181.06;;;17.42;67.80
33161;BME280;19522;45.656;11.302;2023-05-29T00:17:49;98226.88;;;17.54;69.26
33161;BME280;19522;45.656;11.302;2023-05-29T00:20:14;98212.56;;;17.52;69.37
33161;BME280;19522;45.656;11.302;2023-05-29T00:22:40;98207.06;;;17.52;69.06
33161;BME280;19522;45.656;11.302;2023-05-29T00:25:06;98218.75;;;17.59;69.21
33161;BME280;19522;45.656;11.302;2023-05-29T00:27:33;98221.25;;;17.49;69.16
33161;BME280;19522;45.656;11.302;2023-05-29T00:29:59;98193.47;;;17.33;68.36
33161;BME280;19522;45.656;11.302;2023-05-29T00:32:26;98240.13;;;17.69;68.00
33161;BME280;19522;45.656;11.302;2023-05-29T00:34:53;98228.06;;;17.58;68.10
33161;BME280;19522;45.656;11.302;2023-05-29T00:37:18;98228.66;;;17.60;68.97
33161;BME280;19522;45.656;11.302;2023-05-29T00:39:47;98219.00;;;17.46;68.35
33161;BME280;19522;45.656;11.302;2023-05-29T00:42:12;98213.97;;;17.42;68.72
33161;BME280;19522;45.656;11.302;2023-05-29T00:44:38;98195.00;;;17.29;68.46
33161;BME280;19522;45.656;11.302;2023-05-29T00:47:04;98223.53;;;17.52;68.07
33161;BME280;19522;45.656;11.302;2023-05-29T00:49:29;98204.31;;;17.52;67.52
33161;BME280;19522;45.656;11.302;2023-05-29T00:51:55;98233.06;;;17.61;67.92
33161;BME280;19522;45.656;11.302;2023-05-29T00:54:26;98230.19;;;17.56;69.02
33161;BME280;19522;45.656;11.302;2023-05-29T00:56:57;98227.25;;;17.46;70.10
33161;BME280;19522;45.656;11.302;2023-05-29T00:59:22;98215.31;;;17.40;68.79
33161;BME280;19522;45.656;11.302;2023-05-29T01:01:49;98232.84;;;17.39;67.68
33161;BME280;19522;45.656;11.302;2023-05-29T01:04:16;98229.75;;;17.47;67.48
33161;BME280;19522;45.656;11.302;2023-05-29T01:06:42;98231.16;;;17.50;66.64
33161;BME280;19522;45.656;11.302;2023-05-29T01:09:09;98222.59;;;17.34;67.70
33161;BME280;19522;45.656;11.302;2023-05-29T01:15:04;98232.47;;;17.47;66.10
33161;BME280;19522;45.656;11.302;2023-05-29T01:18:19;98231.41;;;17.60;65.05
33161;BME280;19522;45.656;11.302;2023-05-29T01:21:03;98155.28;;;17.20;65.87
33161;BME280;19522;45.656;11.302;2023-05-29T01:23:53;98229.84;;;17.76;65.66
33161;BME280;19522;45.656;11.302;2023-05-29T01:28:57;98222.09;;;17.61;67.05
33161;BME280;19522;45.656;11.302;2023-05-29T01:31:26;98214.81;;;17.55;66.92
33161;BME280;19522;45.656;11.302;2023-05-29T01:33:57;98234.63;;;17.69;67.41
33161;BME280;19522;45.656;11.302;2023-05-29T01:36:24;98239.97;;;17.75;66.68
33161;BME280;19522;45.656;11.302;2023-05-29T01:38:55;98227.22;;;17.69;66.68
33161;BME280;19522;45.656;11.302;2023-05-29T01:41:22;98239.16;;;17.75;66.83
33161;BME280;19522;45.656;11.302;2023-05-29T01:43:49;98239.50;;;17.79;67.17
33161;BME280;19522;45.656;11.302;2023-05-29T01:46:16;98236.88;;;17.84;66.76
33161;BME280;19522;45.656;11.302;2023-05-29T01:48:43;98237.47;;;17.86;67.43
33161;BME280;19522;45.656;11.302;2023-05-29T01:51:09;98194.50;;;17.68;66.93
33161;BME280;19522;45.656;11.302;2023-05-29T01:53:39;98230.53;;;17.83;67.39
33161;BME280;19522;45.656;11.302;2023-05-29T01:56:06;98230.06;;;17.63;68.67
33161;BME280;19522;45.656;11.302;2023-05-29T01:58:32;98212.41;;;17.47;69.19
33161;BME280;19522;45.656;11.302;2023-05-29T02:00:59;98216.84;;;17.48;68.61
33161;BME280;19522;45.656;11.302;2023-05-29T02:03:25;98216.59;;;17.37;68.62
33161;BME280;19522;45.656;11.302;2023-05-29T02:05:54;98229.50;;;17.49;68.22
33161;BME280;19522;45.656;11.302;2023-05-29T02:08:21;98197.13;;;17.15;69.14
33161;BME280;19522;45.656;11.302;2023-05-29T02:10:46;98238.09;;;17.40;69.43
33161;BME280;19522;45.656;11.302;2023-05-29T02:13:12;98168.38;;;16.94;70.36
33161;BME280;19522;45.656;11.302;2023-05-29T02:15:37;98233.56;;;17.34;70.23
33161;BME280;19522;45.656;11.302;2023-05-29T02:18:03;98181.47;;;16.92;70.21
33161;BME280;19522;45.656;11.302;2023-05-29T02:20:28;98235.69;;;17.20;70.35
33161;BME280;19522;45.656;11.302;2023-05-29T02:22:54;98228.19;;;17.27;70.31
33161;BME280;19522;45.656;11.302;2023-05-29T02:25:20;98223.75;;;17.15;70.91
33161;BME280;19522;45.656;11.302;2023-05-29T02:27:45;98184.00;;;16.93;70.57
33161;BME280;19522;45.656;11.302;2023-05-29T02:30:11;98197.97;;;17.04;70.58
33161;BME280;19522;45.656;11.302;2023-05-29T02:32:36;98203.22;;;17.05;71.11
33161;BME280;19522;45.656;11.302;2023-05-29T02:35:05;98208.22;;;17.08;71.31
33161;BME280;19522;45.656;11.302;2023-05-29T02:37:30;98227.31;;;17.27;71.28
33161;BME280;19522;45.656;11.302;2023-05-29T02:39:56;98233.19;;;17.31;71.15
33161;BME280;19522;45.656;11.302;2023-05-29T02:42:22;98172.41;;;16.91;71.20
33161;BME280;19522;45.656;11.302;2023-05-29T02:44:47;98175.97;;;16.92;71.06
33161;BME280;19522;45.656;11.302;2023-05-29T02:47:13;98228.53;;;17.31;70.82
33161;BME280;19522;45.656;11.302;2023-05-29T02:49:38;98229.25;;;17.26;70.66
33161;BME280;19522;45.656;11.302;2023-05-29T02:52:04;98168.81;;;16.91;70.45
33161;BME280;19522;45.656;11.302;2023-05-29T02:54:32;98238.91;;;17.41;70.47
33161;BME280;19522;45.656;11.302;2023-05-29T02:56:58;98236.06;;;17.36;70.99
33161;BME280;19522;45.656;11.302;2023-05-29T02:59:23;98131.13;;;16.74;70.46
33161;BME280;19522;45.656;11.302;2023-05-29T03:01:49;98235.22;;;17.35;70.64
33161;BME280;19522;45.656;11.302;2023-05-29T03:04:14;98191.25;;;16.88;71.61
33161;BME280;19522;45.656;11.302;2023-05-29T03:06:40;98236.88;;;17.12;72.33
33161;BME280;19522;45.656;11.302;2023-05-29T03:09:06;98229.59;;;17.06;71.67
33161;BME280;19522;45.656;11.302;2023-05-29T03:11:32;98183.94;;;16.70;71.76
33161;BME280;19522;45.656;11.302;2023-05-29T03:13:58;98200.53;;;16.87;72.21
33161;BME280;19522;45.656;11.302;2023-05-29T03:16:23;98180.22;;;16.64;72.91
33161;BME280;19522;45.656;11.302;2023-05-29T03:18:49;98254.03;;;16.96;73.09
33161;BME280;19522;45.656;11.302;2023-05-29T03:21:15;98195.00;;;16.63;72.88
33161;BME280;19522;45.656;11.302;2023-05-29T03:23:41;98252.50;;;16.81;73.97
33161;BME280;19522;45.656;11.302;2023-05-29T03:26:06;98247.97;;;16.75;73.63
33161;BME280;19522;45.656;11.302;2023-05-29T03:28:32;98242.03;;;16.60;74.46
33161;BME280;19522;45.656;11.302;2023-05-29T03:30:57;98225.81;;;16.46;75.04
33161;BME280;19522;45.656;11.302;2023-05-29T03:33:23;98237.50;;;16.54;75.81
33161;BME280;19522;45.656;11.302;2023-05-29T03:35:48;98250.22;;;16.78;74.73
33161;BME280;19522;45.656;11.302;2023-05-29T03:38:14;98246.75;;;16.71;74.55
33161;BME280;19522;45.656;11.302;2023-05-29T03:40:40;98247.00;;;16.70;74.64
33161;BME280;19522;45.656;11.302;2023-05-29T03:43:05;98241.34;;;16.64;74.79
33161;BME280;19522;45.656;11.302;2023-05-29T03:45:31;98179.59;;;16.19;75.54
33161;BME280;19522;45.656;11.302;2023-05-29T03:47:57;98232.97;;;16.47;75.29
33161;BME280;19522;45.656;11.302;2023-05-29T03:50:22;98248.41;;;16.72;75.17
33161;BME280;19522;45.656;11.302;2023-05-29T03:52:48;98250.00;;;16.80;75.32
33161;BME280;19522;45.656;11.302;2023-05-29T03:57:48;98234.63;;;16.79;74.24
33161;BME280;19522;45.656;11.302;2023-05-29T04:00:14;98151.81;;;16.16;74.54
33161;BME280;19522;45.656;11.302;2023-05-29T04:02:40;98260.38;;;16.90;74.15
33161;BME280;19522;45.656;11.302;2023-05-29T04:05:09;98244.78;;;16.90;73.31
33161;BME280;19522;45.656;11.302;2023-05-29T04:07:35;98248.53;;;17.08;72.64
33161;BME280;19522;45.656;11.302;2023-05-29T04:10:05;98251.28;;;17.08;73.28
33161;BME280;19522;45.656;11.302;2023-05-29T04:12:32;98240.50;;;16.94;74.25
33161;BME280;19522;45.656;11.302;2023-05-29T04:14:58;98267.72;;;16.96;74.74
33161;BME280;19522;45.656;11.302;2023-05-29T04:17:24;98260.31;;;16.96;74.62
33161;BME280;19522;45.656;11.302;2023-05-29T04:19:49;98264.44;;;16.87;75.07
33161;BME280;19522;45.656;11.302;2023-05-29T04:22:15;98257.88;;;16.88;75.58
33161;BME280;19522;45.656;11.302;2023-05-29T04:24:41;98270.63;;;16.82;76.14
33161;BME280;19522;45.656;11.302;2023-05-29T04:27:09;98271.34;;;16.90;76.33
33161;BME280;19522;45.656;11.302;2023-05-29T04:29:39;98265.19;;;16.94;76.08
33161;BME280;19522;45.656;11.302;2023-05-29T04:32:06;98265.00;;;16.96;76.07
33161;BME280;19522;45.656;11.302;2023-05-29T04:34:34;98280.75;;;17.12;75.82
33161;BME280;19522;45.656;11.302;2023-05-29T04:36:59;98273.13;;;17.15;75.87
33161;BME280;19522;45.656;11.302;2023-05-29T04:39:25;98280.41;;;17.09;76.22
33161;BME280;19522;45.656;11.302;2023-05-29T04:41:53;98273.03;;;17.21;76.70
33161;BME280;19522;45.656;11.302;2023-05-29T04:44:19;98278.53;;;17.33;76.44
33161;BME280;19522;45.656;11.302;2023-05-29T04:46:44;98278.53;;;17.33;76.11
33161;BME280;19522;45.656;11.302;2023-05-29T04:49:12;98281.28;;;17.33;77.15
33161;BME280;19522;45.656;11.302;2023-05-29T04:51:38;98293.69;;;17.48;75.85
33161;BME280;19522;45.656;11.302;2023-05-29T04:54:06;98280.34;;;17.63;75.13
33161;BME280;19522;45.656;11.302;2023-05-29T04:56:32;98284.75;;;17.76;74.41
33161;BME280;19522;45.656;11.302;2023-05-29T04:58:57;98284.28;;;17.79;74.96
33161;BME280;19522;45.656;11.302;2023-05-29T05:01:24;98227.94;;;17.53;74.87
33161;BME280;19522;45.656;11.302;2023-05-29T05:03:50;98278.53;;;17.92;75.49
33161;BME280;19522;45.656;11.302;2023-05-29T05:06:17;98274.75;;;17.82;76.23
33161;BME280;19522;45.656;11.302;2023-05-29T05:08:43;98281.53;;;17.91;74.08
33161;BME280;19522;45.656;11.302;2023-05-29T05:11:09;98249.31;;;17.74;73.38
33161;BME280;19522;45.656;11.302;2023-05-29T05:13:35;98279.78;;;17.97;73.95
33161;BME280;19522;45.656;11.302;2023-05-29T05:16:00;98281.53;;;18.03;75.93
33161;BME280;19522;45.656;11.302;2023-05-29T05:18:26;98268.41;;;18.05;77.13
33161;BME280;19522;45.656;11.302;2023-05-29T05:20:51;98271.03;;;18.00;73.30
33161;BME280;19522;45.656;11.302;2023-05-29T05:23:17;98266.97;;;18.14;72.40
33161;BME280;19522;45.656;11.302;2023-05-29T05:25:42;98253.81;;;18.04;75.17
33161;BME280;19522;45.656;11.302;2023-05-29T05:28:08;98273.00;;;18.28;76.61
33161;BME280;19522;45.656;11.302;2023-05-29T05:30:33;98246.50;;;18.22;76.64
33161;BME280;19522;45.656;11.302;2023-05-29T05:32:59;98231.84;;;18.16;77.25
33161;BME280;19522;45.656;11.302;2023-05-29T05:35:25;98261.44;;;18.26;79.37
33161;BME280;19522;45.656;11.302;2023-05-29T05:37:50;98272.16;;;18.40;76.91
33161;BME280;19522;45.656;11.302;2023-05-29T05:40:16;98256.94;;;18.49;75.81
33161;BME280;19522;45.656;11.302;2023-05-29T05:42:41;98236.38;;;18.51;74.96
33161;BME280;19522;45.656;11.302;2023-05-29T05:45:07;98235.38;;;18.58;73.63
33161;BME280;19522;45.656;11.302;2023-05-29T05:47:33;98226.63;;;18.61;75.11
33161;BME280;19522;45.656;11.302;2023-05-29T05:49:58;98261.94;;;18.81;75.59
33161;BME280;19522;45.656;11.302;2023-05-29T05:52:27;98255.19;;;18.89;74.76
33161;BME280;19522;45.656;11.302;2023-05-29T05:54:59;98252.31;;;18.95;73.42
33161;BME280;19522;45.656;11.302;2023-05-29T05:57:25;98237.75;;;18.83;70.92
33161;BME280;19522;45.656;11.302;2023-05-29T05:59:51;98255.75;;;19.03;70.77
33161;BME280;19522;45.656;11.302;2023-05-29T06:02:17;98212.84;;;18.90;69.90
33161;BME280;19522;45.656;11.302;2023-05-29T06:04:42;98241.53;;;19.23;69.67
33161;BME280;19522;45.656;11.302;2023-05-29T06:07:08;98222.31;;;19.11;70.98
33161;BME280;19522;45.656;11.302;2023-05-29T06:09:34;98193.53;;;19.02;69.35
33161;BME280;19522;45.656;11.302;2023-05-29T06:11:59;98217.84;;;19.22;67.44
33161;BME280;19522;45.656;11.302;2023-05-29T06:14:25;98242.75;;;19.49;67.97
33161;BME280;19522;45.656;11.302;2023-05-29T06:16:51;98242.06;;;19.59;67.38
33161;BME280;19522;45.656;11.302;2023-05-29T06:19:16;98238.63;;;19.69;65.61
33161;BME280;19522;45.656;11.302;2023-05-29T06:21:42;98223.13;;;19.62;66.58
33161;BME280;19522;45.656;11.302;2023-05-29T06:24:07;98181.41;;;19.54;63.83
33161;BME280;19522;45.656;11.302;2023-05-29T06:26:33;98240.91;;;20.11;64.81
33161;BME280;19522;45.656;11.302;2023-05-29T06:28:59;98248.34;;;20.33;63.50
33161;BME280;19522;45.656;11.302;2023-05-29T06:31:24;98253.34;;;20.58;63.10
33161;BME280;19522;45.656;11.302;2023-05-29T06:33:50;98238.94;;;20.78;62.03
33161;BME280;19522;45.656;11.302;2023-05-29T06:36:15;98228.00;;;20.89;58.19
33161;BME280;19522;45.656;11.302;2023-05-29T06:38:46;98213.44;;;20.93;58.17
33161;BME280;19522;45.656;11.302;2023-05-29T06:41:12;98241.59;;;21.28;59.26
33161;BME280;19522;45.656;11.302;2023-05-29T06:43:37;98237.94;;;21.55;59.10
33161;BME280;19522;45.656;11.302;2023-05-29T06:46:03;98209.56;;;21.64;58.76
33161;BME280;19522;45.656;11.302;2023-05-29T06:48:32;98243.81;;;22.12;57.72
33161;BME280;19522;45.656;11.302;2023-05-29T06:50:58;98240.06;;;22.33;56.87
33161;BME280;19522;45.656;11.302;2023-05-29T06:53:24;98240.63;;;22.35;54.34
33161;BME280;19522;45.656;11.302;2023-05-29T06:55:49;98238.38;;;22.32;57.09
33161;BME280;19522;45.656;11.302;2023-05-29T06:58:15;98244.00;;;22.43;56.77
33161;BME280;19522;45.656;11.302;2023-05-29T07:00:41;98202.50;;;22.43;50.07
33161;BME280;19522;45.656;11.302;2023-05-29T07:03:06;98230.78;;;22.76;49.12
33161;BME280;19522;45.656;11.302;2023-05-29T07:05:32;98239.41;;;22.95;50.42
33161;BME280;19522;45.656;11.302;2023-05-29T07:07:57;98223.34;;;23.02;44.52
33161;BME280;19522;45.656;11.302;2023-05-29T07:10:23;98209.25;;;23.03;44.96
33161;BME280;19522;45.656;11.302;2023-05-29T07:12:48;98227.50;;;22.99;48.29
33161;BME280;19522;45.656;11.302;2023-05-29T07:15:14;98227.50;;;23.15;46.13
33161;BME280;19522;45.656;11.302;2023-05-29T07:17:39;98200.94;;;23.09;45.84
33161;BME280;19522;45.656;11.302;2023-05-29T07:20:05;98232.50;;;23.18;46.88
33161;BME280;19522;45.656;11.302;2023-05-29T07:22:33;98217.53;;;23.14;46.84
33161;BME280;19522;45.656;11.302;2023-05-29T07:24:59;98230.06;;;23.27;47.56
33161;BME280;19522;45.656;11.302;2023-05-29T07:27:25;98233.94;;;23.36;45.55
33161;BME280;19522;45.656;11.302;2023-05-29T07:29:50;98238.63;;;23.36;43.81
33161;BME280;19522;45.656;11.302;2023-05-29T07:32:16;98200.91;;;23.14;45.37
33161;BME280;19522;45.656;11.302;2023-05-29T07:34:42;98230.84;;;23.12;45.29
33161;BME280;19522;45.656;11.302;2023-05-29T07:37:07;98226.69;;;23.04;45.63
33161;BME280;19522;45.656;11.302;2023-05-29T07:39:34;98232.22;;;23.14;45.26
33161;BME280;19522;45.656;11.302;2023-05-29T07:42:01;98239.72;;;23.09;45.99
33161;BME280;19522;45.656;11.302;2023-05-29T07:44:27;98188.75;;;22.89;45.68
33161;BME280;19522;45.656;11.302;2023-05-29T07:46:52;98227.50;;;23.15;44.35
33161;BME280;19522;45.656;11.302;2023-05-29T07:49:19;98244.72;;;23.48;44.29
33161;BME280;19522;45.656;11.302;2023-05-29T07:51:45;98210.09;;;23.45;43.61
33161;BME280;19522;45.656;11.302;2023-05-29T07:54:10;98239.13;;;23.74;43.82
33161;BME280;19522;45.656;11.302;2023-05-29T07:56:36;98169.09;;;23.11;43.69
33161;BME280;19522;45.656;11.302;2023-05-29T07:59:02;98237.78;;;23.50;45.21
33161;BME280;19522;45.656;11.302;2023-05-29T08:01:28;98205.38;;;23.36;44.35
33161;BME280;19522;45.656;11.302;2023-05-29T08:03:54;98236.97;;;23.45;43.37
33161;BME280;19522;45.656;11.302;2023-05-29T08:06:23;98233.94;;;23.46;44.83
33161;BME280;19522;45.656;11.302;2023-05-29T08:08:49;98195.69;;;23.28;44.39
33161;BME280;19522;45.656;11.302;2023-05-29T08:11:14;98243.56;;;23.75;43.92
33161;BME280;19522;45.656;11.302;2023-05-29T08:13:40;98223.09;;;23.60;43.64
33161;BME280;19522;45.656;11.302;2023-05-29T08:16:06;98210.91;;;23.56;43.63
33161;BME280;19522;45.656;11.302;2023-05-29T08:18:31;98209.53;;;23.48;44.72
33161;BME280;19522;45.656;11.302;2023-05-29T08:20:58;98239.16;;;23.69;44.07
33161;BME280;19522;45.656;11.302;2023-05-29T08:23:24;98211.44;;;23.63;43.23
33161;BME280;19522;45.656;11.302;2023-05-29T08:25:49;98222.00;;;23.56;42.93
33161;BME280;19522;45.656;11.302;2023-05-29T08:28:15;98243.31;;;23.61;42.92
33161;BME280;19522;45.656;11.302;2023-05-29T08:30:41;98249.16;;;23.59;42.86
33161;BME280;19522;45.656;11.302;2023-05-29T08:33:06;98236.72;;;23.36;44.08
33161;BME280;19522;45.656;11.302;2023-05-29T08:35:35;98199.53;;;23.11;42.88
33161;BME280;19522;45.656;11.302;2023-05-29T08:38:00;98244.72;;;23.27;43.52
33161;BME280;19522;45.656;11.302;2023-05-29T08:40:29;98215.63;;;23.19;44.07
33161;BME280;19522;45.656;11.302;2023-05-29T08:45:33;98236.63;;;24.03;43.71
33161;BME280;19522;45.656;11.302;2023-05-29T08:48:00;98239.38;;;24.08;43.28
33161;BME280;19522;45.656;11.302;2023-05-29T08:50:29;98231.91;;;23.83;42.26
33161;BME280;19522;45.656;11.302;2023-05-29T08:52:56;98242.06;;;24.29;44.24
33161;BME280;19522;45.656;11.302;2023-05-29T08:55:22;98240.13;;;24.30;41.53
33161;BME280;19522;45.656;11.302;2023-05-29T08:57:48;98250.09;;;24.36;44.21
33161;BME280;19522;45.656;11.302;2023-05-29T09:00:15;98232.34;;;24.32;41.59
33161;BME280;19522;45.656;11.302;2023-05-29T09:02:43;98208.03;;;24.08;41.75
33161;BME280;19522;45.656;11.302;2023-05-29T09:05:09;98245.44;;;24.21;43.40
33161;BME280;19522;45.656;11.302;2023-05-29T09:07:41;98236.97;;;24.52;43.75
33161;BME280;19522;45.656;11.302;2023-05-29T09:10:08;98229.59;;;24.26;42.16
33161;BME280;19522;45.656;11.302;2023-05-29T09:12:38;98240.88;;;24.51;42.67
33161;BME280;19522;45.656;11.302;2023-05-29T09:15:17;98245.19;;;24.78;42.56
33161;BME280;19522;45.656;11.302;2023-05-29T09:17:44;98225.97;;;24.86;43.50
33161;BME280;19522;45.656;11.302;2023-05-29T09:20:16;98248.78;;;24.78;40.78
33161;BME280;19522;45.656;11.302;2023-05-29T09:23:01;98235.78;;;24.63;42.39
33161;BME280;19522;45.656;11.302;2023-05-29T09:25:28;98244.94;;;24.74;41.72
33161;BME280;19522;45.656;11.302;2023-05-29T09:28:04;98239.97;;;24.61;42.01
33161;BME280;19522;45.656;11.302;2023-05-29T09:32:59;98258.16;;;24.87;42.18
33161;BME280;19522;45.656;11.302;2023-05-29T09:35:26;98251.44;;;24.99;42.48
33161;BME280;19522;45.656;11.302;2023-05-29T09:37:52;98225.94;;;24.92;45.15
33161;BME280;19522;45.656;11.302;2023-05-29T09:40:17;98246.22;;;25.27;44.15
33161;BME280;19522;45.656;11.302;2023-05-29T09:42:43;98265.38;;;24.94;43.20
33161;BME280;19522;45.656;11.302;2023-05-29T09:45:09;98254.63;;;24.77;42.98
33161;BME280;19522;45.656;11.302;2023-05-29T09:47:35;98259.03;;;24.83;44.49
33161;BME280;19522;45.656;11.302;2023-05-29T09:50:01;98257.59;;;24.96;43.38
33161;BME280;19522;45.656;11.302;2023-05-29T09:52:29;98260.94;;;24.93;44.19
33161;BME280;19522;45.656;11.302;2023-05-29T09:54:55;98259.03;;;24.83;42.32
33161;BME280;19522;45.656;11.302;2023-05-29T09:57:22;98251.84;;;24.77;44.10
33161;BME280;19522;45.656;11.302;2023-05-29T09:59:50;98260.06;;;24.97;43.93
33161;BME280;19522;45.656;11.302;2023-05-29T10:02:18;98245.50;;;25.16;42.81
33161;BME280;19522;45.656;11.302;2023-05-29T10:04:44;98234.84;;;25.28;41.27
33161;BME280;19522;45.656;11.302;2023-05-29T10:07:26;98254.94;;;25.15;40.70
33161;BME280;19522;45.656;11.302;2023-05-29T10:09:59;98256.50;;;24.92;42.72
33161;BME280;19522;45.656;11.302;2023-05-29T10:12:29;98263.50;;;24.79;42.30
33161;BME280;19522;45.656;11.302;2023-05-29T10:14:57;98259.38;;;24.76;44.40
33161;BME280;19522;45.656;11.302;2023-05-29T10:17:33;98248.44;;;24.90;43.33
33161;BME280;19522;45.656;11.302;2023-05-29T10:20:02;98255.69;;;25.26;45.35
33161;BME280;19522;45.656;11.302;2023-05-29T10:22:31;98234.84;;;25.28;41.00
33161;BME280;19522;45.656;11.302;2023-05-29T10:24:57;98213.56;;;25.13;41.80
33161;BME280;19522;45.656;11.302;2023-05-29T10:27:24;98252.56;;;25.38;43.16
33161;BME280;19522;45.656;11.302;2023-05-29T10:29:54;98236.03;;;25.17;41.23
33161;BME280;19522;45.656;11.302;2023-05-29T10:32:38;98245.06;;;24.98;42.88
33161;BME280;19522;45.656;11.302;2023-05-29T10:35:09;98261.66;;;25.09;41.84
33161;BME280;19522;45.656;11.302;2023-05-29T10:37:47;98241.31;;;24.79;43.29
33161;BME280;19522;45.656;11.302;2023-05-29T10:40:15;98246.19;;;24.92;43.53
33161;BME280;19522;45.656;11.302;2023-05-29T10:42:49;98248.50;;;24.80;41.35
33161;BME280;19522;45.656;11.302;2023-05-29T10:47:56;98208.81;;;24.79;42.62
33161;BME280;19522;45.656;11.302;2023-05-29T10:50:39;98231.84;;;25.19;42.43
33161;BME280;19522;45.656;11.302;2023-05-29T10:53:10;98221.47;;;25.30;42.70
33161;BME280;19522;45.656;11.302;2023-05-29T10:55:39;98236.78;;;25.28;43.13
33161;BME280;19522;45.656;11.302;2023-05-29T10:58:09;98213.00;;;24.77;42.71
33161;BME280;19522;45.656;11.302;2023-05-29T11:00:42;98222.78;;;25.09;42.47
33161;BME280;19522;45.656;11.302;2023-05-29T11:03:12;98206.81;;;24.85;42.49
33161;BME280;19522;45.656;11.302;2023-05-29T11:06:02;98226.06;;;24.76;41.95
33161;BME280;19522;45.656;11.302;2023-05-29T11:08:42;98242.66;;;24.81;42.26
33161;BME280;19522;45.656;11.302;2023-05-29T11:11:32;98229.75;;;25.01;42.46
33161;BME280;19522;45.656;11.302;2023-05-29T11:14:05;98198.47;;;24.90;42.53
33161;BME280;19522;45.656;11.302;2023-05-29T11:18:58;98221.47;;;25.30;44.20
33161;BME280;19522;45.656;11.302;2023-05-29T11:21:33;98218.00;;;25.49;42.47
33161;BME280;19522;45.656;11.302;2023-05-29T11:23:59;98231.47;;;25.66;40.73
33161;BME280;19522;45.656;11.302;2023-05-29T11:26:28;98219.72;;;25.45;39.79
33161;BME280;19522;45.656;11.302;2023-05-29T11:28:57;98201.69;;;25.37;39.56
33161;BME280;19522;45.656;11.302;2023-05-29T11:31:24;98192.97;;;25.49;41.66
33161;BME280;19522;45.656;11.302;2023-05-29T11:33:54;98199.53;;;25.88;43.99
33161;BME280;19522;45.656;11.302;2023-05-29T11:36:21;98196.53;;;26.08;38.99
33161;BME280;19522;45.656;11.302;2023-05-29T11:38:47;98209.44;;;25.99;39.19
33161;BME280;19522;45.656;11.302;2023-05-29T11:41:13;98211.25;;;26.14;39.62
33161;BME280;19522;45.656;11.302;2023-05-29T11:43:39;98215.25;;;26.27;40.29
33161;BME280;19522;45.656;11.302;2023-05-29T11:46:18;98184.00;;;26.11;39.07
33161;BME280;19522;45.656;11.302;2023-05-29T11:48:46;98221.41;;;26.24;39.15
33161;BME280;19522;45.656;11.302;2023-05-29T11:51:12;98197.47;;;26.23;39.12
33161;BME280;19522;45.656;11.302;2023-05-29T11:53:40;98176.13;;;26.18;39.91
33161;BME280;19522;45.656;11.302;2023-05-29T11:56:08;98211.59;;;26.51;38.41
33161;BME280;19522;45.656;11.302;2023-05-29T11:58:36;98203.97;;;26.37;39.23
33161;BME280;19522;45.656;11.302;2023-05-29T12:01:02;98217.16;;;26.51;39.57
33161;BME280;19522;45.656;11.302;2023-05-29T12:03:28;98195.63;;;26.37;38.60
33161;BME280;19522;45.656;11.302;2023-05-29T12:05:54;98214.22;;;26.42;38.44
33161;BME280;19522;45.656;11.302;2023-05-29T12:08:22;98208.44;;;26.38;38.80
33161;BME280;19522;45.656;11.302;2023-05-29T12:10:52;98212.38;;;25.83;36.89
33161;BME280;19522;45.656;11.302;2023-05-29T12:13:19;98196.16;;;25.66;35.03
33161;BME280;19522;45.656;11.302;2023-05-29T12:15:48;98204.19;;;25.68;34.85
33161;BME280;19522;45.656;11.302;2023-05-29T12:18:16;98202.44;;;25.77;36.58
33161;BME280;19522;45.656;11.302;2023-05-29T12:20:42;98204.47;;;26.20;38.21
33161;BME280;19522;45.656;11.302;2023-05-29T12:23:10;98143.34;;;26.15;39.20
33161;BME280;19522;45.656;11.302;2023-05-29T12:25:39;98164.59;;;26.68;37.08
33161;BME280;19522;45.656;11.302;2023-05-29T12:28:05;98206.34;;;26.68;36.01
33161;BME280;19522;45.656;11.302;2023-05-29T12:30:37;98156.41;;;26.15;35.32
33161;BME280;19522;45.656;11.302;2023-05-29T12:33:09;98174.34;;;26.47;36.30
33161;BME280;19522;45.656;11.302;2023-05-29T12:35:36;98192.44;;;26.87;39.18
33161;BME280;19522;45.656;11.302;2023-05-29T12:38:04;98197.19;;;26.87;36.76
33161;BME280;19522;45.656;11.302;2023-05-29T12:40:34;98196.22;;;26.78;36.70
33161;BME280;19522;45.656;11.302;2023-05-29T12:43:09;98167.28;;;26.73;36.22
33161;BME280;19522;45.656;11.302;2023-05-29T12:45:35;98171.97;;;26.59;36.62
33161;BME280;19522;45.656;11.302;2023-05-29T12:48:05;98189.03;;;26.71;37.72
33161;BME280;19522;45.656;11.302;2023-05-29T12:55:28;98176.00;;;26.48;36.16
33161;BME280;19522;45.656;11.302;2023-05-29T12:57:54;98179.97;;;26.41;36.29
33161;BME280;19522;45.656;11.302;2023-05-29T13:00:21;98177.34;;;26.69;36.54
33161;BME280;19522;45.656;11.302;2023-05-29T13:02:47;98177.63;;;26.29;34.47
33161;BME280;19522;45.656;11.302;2023-05-29T13:05:14;98148.28;;;26.18;35.14
33161;BME280;19522;45.656;11.302;2023-05-29T13:07:41;98164.78;;;26.53;35.67
33161;BME280;19522;45.656;11.302;2023-05-29T13:10:07;98130.78;;;26.18;36.38
33161;BME280;19522;45.656;11.302;2023-05-29T13:12:34;98158.31;;;26.96;35.10
33161;BME280;19522;45.656;11.302;2023-05-29T13:15:00;98134.84;;;26.83;36.17